sensor_id;sensor_type;location;lat;lon;timestamp;noise_LAeq;noise_LA_min;noise_LA_max;noise_LA01;noise_LA95
67318;Laerm;57664;51.436;5.980;2023-04-06T00:00:01;35.83;34.80;36.90;;
67318;Laerm;57664;51.436;5.980;2023-04-06T00:00:12;35.84;34.90;36.72;;
67318;Laerm;57664;51.436;5.980;2023-04-06T00:00:23;35.84;35.02;36.91;;
67318;Laerm;57664;51.436;5.980;2023-04-06T00:00:33;35.90;34.99;37.04;;
67318;Laerm;57664;51.436;5.980;2023-04-06T00:00:43;35.92;34.90;36.86;;
67318;Laerm;57664;51.436;5.980;2023-04-06T00:00:54;35.93;34.91;36.79;;
67318;Laerm;57664;51.436;5.980;2023-04-06T00:01:04;35.92;34.98;36.79;;
67318;Laerm;57664;51.436;5.980;2023-04-06T00:01:15;35.95;34.91;36.77;;
67318;Laerm;57664;51.436;5.980;2023-04-06T00:01:25;35.97;35.11;36.78;;
67318;Laerm;57664;51.436;5.980;2023-04-06T00:01:35;35.96;35.00;36.84;;
67318;Laerm;57664;51.436;5.980;2023-04-06T00:01:46;35.97;35.01;36.79;;
67318;Laerm;57664;51.436;5.980;2023-04-06T00:01:57;35.98;34.93;36.78;;
67318;Laerm;57664;51.436;5.980;2023-04-06T00:02:07;35.94;35.05;36.97;;
67318;Laerm;57664;51.436;5.980;2023-04-06T00:02:20;35.91;34.89;36.82;;
67318;Laerm;57664;51.436;5.980;2023-04-06T00:02:30;35.93;34.92;36.79;;
67318;Laerm;57664;51.436;5.980;2023-04-06T00:02:40;35.93;34.98;36.72;;
67318;Laerm;57664;51.436;5.980;2023-04-06T00:02:51;35.94;34.85;36.75;;
67318;Laerm;57664;51.436;5.980;2023-04-06T00:03:05;35.94;34.73;36.98;;
67318;Laerm;57664;51.436;5.980;2023-04-06T00:03:15;35.94;34.93;36.92;;
67318;Laerm;57664;51.436;5.980;2023-04-06T00:03:26;35.95;35.11;36.95;;
67318;Laerm;57664;51.436;5.980;2023-04-06T00:03:36;35.90;34.98;36.84;;
67318;Laerm;57664;51.436;5.980;2023-04-06T00:03:47;35.92;35.10;36.71;;
67318;Laerm;57664;51.436;5.980;2023-04-06T00:03:58;35.91;34.92;36.78;;
67318;Laerm;57664;51.436;5.980;2023-04-06T00:04:09;35.89;35.03;36.68;;
67318;Laerm;57664;51.436;5.980;2023-04-06T00:04:19;35.89;34.92;36.78;;
67318;Laerm;57664;51.436;5.980;2023-04-06T00:04:30;35.92;34.92;36.74;;
67318;Laerm;57664;51.436;5.980;2023-04-06T00:04:43;35.89;34.69;36.78;;
67318;Laerm;57664;51.436;5.980;2023-04-06T00:04:54;35.90;34.94;36.72;;
67318;Laerm;57664;51.436;5.980;2023-04-06T00:05:04;35.91;34.60;36.83;;
67318;Laerm;57664;51.436;5.980;2023-04-06T00:05:14;35.93;35.07;37.09;;
67318;Laerm;57664;51.436;5.980;2023-04-06T00:05:25;35.90;34.99;36.63;;
67318;Laerm;57664;51.436;5.980;2023-04-06T00:05:36;35.94;34.98;36.84;;
67318;Laerm;57664;51.436;5.980;2023-04-06T00:05:46;35.95;34.98;36.83;;
67318;Laerm;57664;51.436;5.980;2023-04-06T00:05:57;35.95;34.94;36.92;;
67318;Laerm;57664;51.436;5.980;2023-04-06T00:06:07;35.95;35.09;37.00;;
67318;Laerm;57664;51.436;5.980;2023-04-06T00:06:18;35.94;35.12;37.01;;
67318;Laerm;57664;51.436;5.980;2023-04-06T00:06:31;35.95;35.00;36.82;;
67318;Laerm;57664;51.436;5.980;2023-04-06T00:06:43;35.91;35.06;36.70;;
67318;Laerm;57664;51.436;5.980;2023-04-06T00:06:54;35.90;34.84;36.96;;
67318;Laerm;57664;51.436;5.980;2023-04-06T00:07:04;35.89;34.77;36.66;;
67318;Laerm;57664;51.436;5.980;2023-04-06T00:07:14;35.91;34.91;36.91;;
67318;Laerm;57664;51.436;5.980;2023-04-06T00:07:24;35.96;35.18;36.71;;
67318;Laerm;57664;51.436;5.980;2023-04-06T00:07:35;35.95;35.10;36.86;;
67318;Laerm;57664;51.436;5.980;2023-04-06T00:07:45;36.02;35.13;36.93;;
67318;Laerm;57664;51.436;5.980;2023-04-06T00:07:57;35.99;35.00;36.93;;
67318;Laerm;57664;51.436;5.980;2023-04-06T00:08:07;36.02;35.14;36.89;;
67318;Laerm;57664;51.436;5.980;2023-04-06T00:08:17;35.98;35.26;36.91;;
67318;Laerm;57664;51.436;5.980;2023-04-06T00:08:28;36.02;34.73;36.96;;
67318;Laerm;57664;51.436;5.980;2023-04-06T00:08:38;35.97;34.98;37.00;;
67318;Laerm;57664;51.436;5.980;2023-04-06T00:08:48;35.98;35.09;36.83;;
67318;Laerm;57664;51.436;5.980;2023-04-06T00:09:01;35.98;34.83;36.76;;
67318;Laerm;57664;51.436;5.980;2023-04-06T00:09:11;36.03;35.13;36.93;;
67318;Laerm;57664;51.436;5.980;2023-04-06T00:09:25;36.03;35.10;37.02;;
67318;Laerm;57664;51.436;5.980;2023-04-06T00:09:35;36.03;35.25;37.24;;
67318;Laerm;57664;51.436;5.980;2023-04-06T00:09:45;36.08;35.00;36.93;;
67318;Laerm;57664;51.436;5.980;2023-04-06T00:09:55;36.07;35.21;40.56;;
67318;Laerm;57664;51.436;5.980;2023-04-06T00:10:06;36.12;35.06;37.10;;
67318;Laerm;57664;51.436;5.980;2023-04-06T00:10:16;36.08;35.23;37.20;;
67318;Laerm;57664;51.436;5.980;2023-04-06T00:10:27;36.10;35.23;36.96;;
67318;Laerm;57664;51.436;5.980;2023-04-06T00:10:37;36.11;35.13;36.81;;
67318;Laerm;57664;51.436;5.980;2023-04-06T00:10:47;36.15;35.26;37.18;;
67318;Laerm;57664;51.436;5.980;2023-04-06T00:10:58;36.10;35.10;37.15;;
67318;Laerm;57664;51.436;5.980;2023-04-06T00:11:08;36.10;35.08;36.87;;
67318;Laerm;57664;51.436;5.980;2023-04-06T00:11:19;36.10;35.11;37.01;;
67318;Laerm;57664;51.436;5.980;2023-04-06T00:11:29;36.13;35.15;37.02;;
67318;Laerm;57664;51.436;5.980;2023-04-06T00:11:40;36.16;35.25;37.03;;
67318;Laerm;57664;51.436;5.980;2023-04-06T00:11:50;36.14;35.14;37.01;;
67318;Laerm;57664;51.436;5.980;2023-04-06T00:12:00;36.14;34.97;37.07;;
67318;Laerm;57664;51.436;5.980;2023-04-06T00:12:11;36.16;35.43;36.94;;
67318;Laerm;57664;51.436;5.980;2023-04-06T00:12:21;36.19;35.22;37.05;;
67318;Laerm;57664;51.436;5.980;2023-04-06T00:12:31;36.17;35.36;36.79;;
67318;Laerm;57664;51.436;5.980;2023-04-06T00:12:42;36.14;35.16;39.05;;
67318;Laerm;57664;51.436;5.980;2023-04-06T00:12:52;36.13;35.22;37.17;;
67318;Laerm;57664;51.436;5.980;2023-04-06T00:13:03;36.12;35.08;37.03;;
67318;Laerm;57664;51.436;5.980;2023-04-06T00:13:13;36.13;35.44;36.91;;
67318;Laerm;57664;51.436;5.980;2023-04-06T00:13:23;36.15;35.18;37.06;;
67318;Laerm;57664;51.436;5.980;2023-04-06T00:13:34;36.16;35.29;37.01;;
67318;Laerm;57664;51.436;5.980;2023-04-06T00:13:44;36.13;35.22;37.41;;
67318;Laerm;57664;51.436;5.980;2023-04-06T00:13:55;36.17;35.25;37.34;;
67318;Laerm;57664;51.436;5.980;2023-04-06T00:14:05;36.20;35.28;37.47;;
67318;Laerm;57664;51.436;5.980;2023-04-06T00:14:15;36.17;35.27;37.58;;
67318;Laerm;57664;51.436;5.980;2023-04-06T00:14:27;36.13;35.18;37.01;;
67318;Laerm;57664;51.436;5.980;2023-04-06T00:14:37;36.16;35.15;36.95;;
67318;Laerm;57664;51.436;5.980;2023-04-06T00:14:47;36.13;35.18;37.44;;
67318;Laerm;57664;51.436;5.980;2023-04-06T00:14:58;36.11;35.26;36.96;;
67318;Laerm;57664;51.436;5.980;2023-04-06T00:15:08;36.15;35.15;37.14;;
67318;Laerm;57664;51.436;5.980;2023-04-06T00:15:19;36.13;35.15;36.95;;
67318;Laerm;57664;51.436;5.980;2023-04-06T00:15:29;36.09;35.06;36.99;;
67318;Laerm;57664;51.436;5.980;2023-04-06T00:15:39;36.16;35.22;37.45;;
67318;Laerm;57664;51.436;5.980;2023-04-06T00:15:50;36.13;35.03;37.23;;
67318;Laerm;57664;51.436;5.980;2023-04-06T00:16:00;36.11;35.21;36.91;;
67318;Laerm;57664;51.436;5.980;2023-04-06T00:16:10;36.16;35.21;37.23;;
67318;Laerm;57664;51.436;5.980;2023-04-06T00:16:21;36.10;35.13;36.92;;
67318;Laerm;57664;51.436;5.980;2023-04-06T00:16:31;36.12;35.37;37.29;;
67318;Laerm;57664;51.436;5.980;2023-04-06T00:16:41;36.12;35.10;36.94;;
67318;Laerm;57664;51.436;5.980;2023-04-06T00:16:52;36.05;35.12;36.97;;
67318;Laerm;57664;51.436;5.980;2023-04-06T00:17:02;36.07;34.95;36.97;;
67318;Laerm;57664;51.436;5.980;2023-04-06T00:17:12;36.07;35.21;36.91;;
67318;Laerm;57664;51.436;5.980;2023-04-06T00:17:23;36.05;35.19;36.98;;
67318;Laerm;57664;51.436;5.980;2023-04-06T00:17:33;36.08;35.32;38.06;;
67318;Laerm;57664;51.436;5.980;2023-04-06T00:17:43;36.08;35.16;36.85;;
67318;Laerm;57664;51.436;5.980;2023-04-06T00:17:53;36.08;34.98;37.10;;
67318;Laerm;57664;51.436;5.980;2023-04-06T00:18:04;36.05;35.01;37.17;;
67318;Laerm;57664;51.436;5.980;2023-04-06T00:18:14;36.07;35.19;37.15;;
67318;Laerm;57664;51.436;5.980;2023-04-06T00:18:24;36.07;34.95;36.96;;
67318;Laerm;57664;51.436;5.980;2023-04-06T00:18:34;36.07;35.26;36.99;;
67318;Laerm;57664;51.436;5.980;2023-04-06T00:18:45;36.07;34.83;37.25;;
67318;Laerm;57664;51.436;5.980;2023-04-06T00:18:56;36.07;35.09;36.92;;
67318;Laerm;57664;51.436;5.980;2023-04-06T00:19:06;36.07;34.94;36.77;;
67318;Laerm;57664;51.436;5.980;2023-04-06T00:19:16;36.08;35.00;37.01;;
67318;Laerm;57664;51.436;5.980;2023-04-06T00:19:26;36.07;35.18;37.11;;
67318;Laerm;57664;51.436;5.980;2023-04-06T00:19:37;36.05;35.09;37.21;;
67318;Laerm;57664;51.436;5.980;2023-04-06T00:19:47;36.07;34.97;37.09;;
67318;Laerm;57664;51.436;5.980;2023-04-06T00:19:57;36.06;35.10;37.26;;
67318;Laerm;57664;51.436;5.980;2023-04-06T00:20:08;36.06;35.07;36.83;;
67318;Laerm;57664;51.436;5.980;2023-04-06T00:20:20;36.02;35.12;36.85;;
67318;Laerm;57664;51.436;5.980;2023-04-06T00:20:30;36.08;35.14;37.08;;
67318;Laerm;57664;51.436;5.980;2023-04-06T00:20:41;36.11;35.09;36.89;;
67318;Laerm;57664;51.436;5.980;2023-04-06T00:20:51;36.09;35.23;36.79;;
67318;Laerm;57664;51.436;5.980;2023-04-06T00:21:01;36.06;34.73;36.95;;
67318;Laerm;57664;51.436;5.980;2023-04-06T00:21:12;36.06;34.99;36.84;;
67318;Laerm;57664;51.436;5.980;2023-04-06T00:21:23;36.08;35.23;37.05;;
67318;Laerm;57664;51.436;5.980;2023-04-06T00:21:36;36.07;35.16;37.11;;
67318;Laerm;57664;51.436;5.980;2023-04-06T00:21:46;36.09;35.27;36.94;;
67318;Laerm;57664;51.436;5.980;2023-04-06T00:21:56;36.06;35.22;36.91;;
67318;Laerm;57664;51.436;5.980;2023-04-06T00:22:07;36.08;34.61;36.99;;
67318;Laerm;57664;51.436;5.980;2023-04-06T00:22:17;36.11;35.20;37.22;;
67318;Laerm;57664;51.436;5.980;2023-04-06T00:22:27;36.13;35.20;37.13;;
67318;Laerm;57664;51.436;5.980;2023-04-06T00:22:37;36.13;35.23;37.00;;
67318;Laerm;57664;51.436;5.980;2023-04-06T00:22:48;36.14;35.13;36.98;;
67318;Laerm;57664;51.436;5.980;2023-04-06T00:22:59;36.14;35.18;37.15;;
67318;Laerm;57664;51.436;5.980;2023-04-06T00:23:09;36.14;35.43;37.15;;
67318;Laerm;57664;51.436;5.980;2023-04-06T00:23:20;36.15;35.23;37.02;;
67318;Laerm;57664;51.436;5.980;2023-04-06T00:23:33;36.13;34.92;37.13;;
67318;Laerm;57664;51.436;5.980;2023-04-06T00:23:43;36.13;35.07;37.21;;
67318;Laerm;57664;51.436;5.980;2023-04-06T00:23:53;36.15;35.10;36.94;;
67318;Laerm;57664;51.436;5.980;2023-04-06T00:24:04;36.16;34.76;36.95;;
67318;Laerm;57664;51.436;5.980;2023-04-06T00:24:14;36.11;35.15;36.78;;
67318;Laerm;57664;51.436;5.980;2023-04-06T00:24:24;36.10;35.00;37.07;;
67318;Laerm;57664;51.436;5.980;2023-04-06T00:24:35;36.11;34.79;36.97;;
67318;Laerm;57664;51.436;5.980;2023-04-06T00:24:45;36.14;35.35;37.35;;
67318;Laerm;57664;51.436;5.980;2023-04-06T00:24:55;36.12;35.27;36.96;;
67318;Laerm;57664;51.436;5.980;2023-04-06T00:25:05;36.13;35.36;37.27;;
67318;Laerm;57664;51.436;5.980;2023-04-06T00:25:19;36.18;35.37;36.90;;
67318;Laerm;57664;51.436;5.980;2023-04-06T00:25:29;36.18;35.18;37.21;;
67318;Laerm;57664;51.436;5.980;2023-04-06T00:25:40;36.14;35.26;36.95;;
67318;Laerm;57664;51.436;5.980;2023-04-06T00:25:50;36.13;35.08;36.89;;
67318;Laerm;57664;51.436;5.980;2023-04-06T00:26:00;36.10;35.24;36.95;;
67318;Laerm;57664;51.436;5.980;2023-04-06T00:26:10;36.18;35.28;37.18;;
67318;Laerm;57664;51.436;5.980;2023-04-06T00:26:21;36.18;35.29;37.40;;
67318;Laerm;57664;51.436;5.980;2023-04-06T00:26:31;36.15;35.24;37.03;;
67318;Laerm;57664;51.436;5.980;2023-04-06T00:26:41;36.18;35.30;37.01;;
67318;Laerm;57664;51.436;5.980;2023-04-06T00:26:51;36.15;35.15;37.13;;
67318;Laerm;57664;51.436;5.980;2023-04-06T00:27:05;36.18;35.12;37.41;;
67318;Laerm;57664;51.436;5.980;2023-04-06T00:27:15;36.18;35.27;37.11;;
67318;Laerm;57664;51.436;5.980;2023-04-06T00:27:25;36.17;35.34;37.07;;
67318;Laerm;57664;51.436;5.980;2023-04-06T00:27:36;36.15;35.30;36.94;;
67318;Laerm;57664;51.436;5.980;2023-04-06T00:27:46;36.15;35.19;36.91;;
67318;Laerm;57664;51.436;5.980;2023-04-06T00:27:56;36.20;35.21;36.99;;
67318;Laerm;57664;51.436;5.980;2023-04-06T00:28:07;36.14;35.29;36.94;;
67318;Laerm;57664;51.436;5.980;2023-04-06T00:28:17;36.18;35.19;37.50;;
67318;Laerm;57664;51.436;5.980;2023-04-06T00:28:27;36.16;35.22;37.04;;
67318;Laerm;57664;51.436;5.980;2023-04-06T00:28:39;36.15;35.20;37.06;;
67318;Laerm;57664;51.436;5.980;2023-04-06T00:28:50;36.14;35.17;36.91;;
67318;Laerm;57664;51.436;5.980;2023-04-06T00:29:02;36.15;35.14;36.97;;
67318;Laerm;57664;51.436;5.980;2023-04-06T00:29:12;36.16;35.11;37.19;;
67318;Laerm;57664;51.436;5.980;2023-04-06T00:29:22;36.17;35.17;37.01;;
67318;Laerm;57664;51.436;5.980;2023-04-06T00:29:33;36.14;35.04;37.22;;
67318;Laerm;57664;51.436;5.980;2023-04-06T00:29:46;36.17;35.06;37.22;;
67318;Laerm;57664;51.436;5.980;2023-04-06T00:29:56;36.20;35.15;37.08;;
67318;Laerm;57664;51.436;5.980;2023-04-06T00:30:07;36.12;34.99;36.97;;
67318;Laerm;57664;51.436;5.980;2023-04-06T00:30:17;36.18;35.26;37.10;;
67318;Laerm;57664;51.436;5.980;2023-04-06T00:30:28;36.12;35.12;37.00;;
67318;Laerm;57664;51.436;5.980;2023-04-06T00:30:38;36.13;35.33;36.95;;
67318;Laerm;57664;51.436;5.980;2023-04-06T00:30:48;36.09;35.13;37.19;;
67318;Laerm;57664;51.436;5.980;2023-04-06T00:30:58;36.13;35.04;36.82;;
67318;Laerm;57664;51.436;5.980;2023-04-06T00:31:09;36.11;35.06;37.10;;
67318;Laerm;57664;51.436;5.980;2023-04-06T00:31:19;36.10;35.09;36.89;;
67318;Laerm;57664;51.436;5.980;2023-04-06T00:31:29;36.11;35.23;37.63;;
67318;Laerm;57664;51.436;5.980;2023-04-06T00:31:40;36.15;35.02;37.26;;
67318;Laerm;57664;51.436;5.980;2023-04-06T00:31:50;36.13;35.15;37.30;;
67318;Laerm;57664;51.436;5.980;2023-04-06T00:32:00;36.12;35.29;37.13;;
67318;Laerm;57664;51.436;5.980;2023-04-06T00:32:11;36.13;35.23;37.12;;
67318;Laerm;57664;51.436;5.980;2023-04-06T00:32:21;36.15;35.12;37.03;;
67318;Laerm;57664;51.436;5.980;2023-04-06T00:32:31;36.14;35.36;37.05;;
67318;Laerm;57664;51.436;5.980;2023-04-06T00:32:41;36.14;35.44;36.85;;
67318;Laerm;57664;51.436;5.980;2023-04-06T00:32:52;36.14;35.24;37.01;;
67318;Laerm;57664;51.436;5.980;2023-04-06T00:33:02;36.15;34.95;37.13;;
67318;Laerm;57664;51.436;5.980;2023-04-06T00:33:12;36.14;35.33;37.09;;
67318;Laerm;57664;51.436;5.980;2023-04-06T00:33:23;36.15;34.92;37.02;;
67318;Laerm;57664;51.436;5.980;2023-04-06T00:33:33;36.12;35.03;37.11;;
67318;Laerm;57664;51.436;5.980;2023-04-06T00:33:43;36.11;35.22;36.88;;
67318;Laerm;57664;51.436;5.980;2023-04-06T00:33:53;36.16;35.04;36.90;;
67318;Laerm;57664;51.436;5.980;2023-04-06T00:34:05;36.13;35.08;37.05;;
67318;Laerm;57664;51.436;5.980;2023-04-06T00:34:15;36.08;34.84;36.83;;
67318;Laerm;57664;51.436;5.980;2023-04-06T00:34:26;36.09;35.13;36.90;;
67318;Laerm;57664;51.436;5.980;2023-04-06T00:34:36;36.09;35.12;37.14;;
67318;Laerm;57664;51.436;5.980;2023-04-06T00:34:46;36.09;35.18;36.89;;
67318;Laerm;57664;51.436;5.980;2023-04-06T00:34:58;36.09;35.01;37.00;;
67318;Laerm;57664;51.436;5.980;2023-04-06T00:35:08;36.12;35.11;36.86;;
67318;Laerm;57664;51.436;5.980;2023-04-06T00:35:18;36.15;35.24;37.02;;
67318;Laerm;57664;51.436;5.980;2023-04-06T00:35:29;36.12;35.22;37.07;;
67318;Laerm;57664;51.436;5.980;2023-04-06T00:35:39;36.14;35.33;36.88;;
67318;Laerm;57664;51.436;5.980;2023-04-06T00:35:49;36.14;35.21;37.01;;
67318;Laerm;57664;51.436;5.980;2023-04-06T00:36:00;36.13;35.30;37.16;;
67318;Laerm;57664;51.436;5.980;2023-04-06T00:36:10;36.13;35.26;37.19;;
67318;Laerm;57664;51.436;5.980;2023-04-06T00:36:21;36.16;35.18;37.00;;
67318;Laerm;57664;51.436;5.980;2023-04-06T00:36:31;36.16;35.23;37.01;;
67318;Laerm;57664;51.436;5.980;2023-04-06T00:36:41;36.13;35.08;37.03;;
67318;Laerm;57664;51.436;5.980;2023-04-06T00:36:51;36.17;35.02;36.95;;
67318;Laerm;57664;51.436;5.980;2023-04-06T00:37:02;36.18;35.15;37.08;;
67318;Laerm;57664;51.436;5.980;2023-04-06T00:37:12;36.14;35.39;36.95;;
67318;Laerm;57664;51.436;5.980;2023-04-06T00:37:22;36.16;35.32;37.08;;
67318;Laerm;57664;51.436;5.980;2023-04-06T00:37:33;36.18;35.00;36.97;;
67318;Laerm;57664;51.436;5.980;2023-04-06T00:37:45;36.18;35.23;37.12;;
67318;Laerm;57664;51.436;5.980;2023-04-06T00:37:55;36.19;35.18;37.05;;
67318;Laerm;57664;51.436;5.980;2023-04-06T00:38:06;36.21;35.23;37.08;;
67318;Laerm;57664;51.436;5.980;2023-04-06T00:38:16;36.17;35.24;37.14;;
67318;Laerm;57664;51.436;5.980;2023-04-06T00:38:26;36.18;35.41;37.13;;
67318;Laerm;57664;51.436;5.980;2023-04-06T00:38:37;36.21;35.19;37.18;;
67318;Laerm;57664;51.436;5.980;2023-04-06T00:38:47;36.18;35.25;36.96;;
67318;Laerm;57664;51.436;5.980;2023-04-06T00:38:57;36.18;35.31;37.08;;
67318;Laerm;57664;51.436;5.980;2023-04-06T00:39:07;36.19;35.30;36.92;;
67318;Laerm;57664;51.436;5.980;2023-04-06T00:39:17;36.19;35.39;37.04;;
67318;Laerm;57664;51.436;5.980;2023-04-06T00:39:28;36.20;35.04;37.15;;
67318;Laerm;57664;51.436;5.980;2023-04-06T00:39:38;36.28;35.37;37.23;;
67318;Laerm;57664;51.436;5.980;2023-04-06T00:39:48;36.23;35.33;37.01;;
67318;Laerm;57664;51.436;5.980;2023-04-06T00:39:58;36.24;35.25;37.45;;
67318;Laerm;57664;51.436;5.980;2023-04-06T00:40:09;36.24;35.14;36.92;;
67318;Laerm;57664;51.436;5.980;2023-04-06T00:40:19;36.23;35.31;37.10;;
67318;Laerm;57664;51.436;5.980;2023-04-06T00:40:30;36.25;35.34;37.02;;
67318;Laerm;57664;51.436;5.980;2023-04-06T00:40:41;36.25;35.41;37.18;;
67318;Laerm;57664;51.436;5.980;2023-04-06T00:40:51;36.30;35.52;41.46;;
67318;Laerm;57664;51.436;5.980;2023-04-06T00:41:03;36.26;35.49;37.38;;
67318;Laerm;57664;51.436;5.980;2023-04-06T00:41:13;36.27;35.33;37.19;;
67318;Laerm;57664;51.436;5.980;2023-04-06T00:41:24;36.25;35.42;37.25;;
67318;Laerm;57664;51.436;5.980;2023-04-06T00:41:34;36.28;35.10;37.18;;
67318;Laerm;57664;51.436;5.980;2023-04-06T00:41:45;36.25;35.39;37.04;;
67318;Laerm;57664;51.436;5.980;2023-04-06T00:41:56;36.28;35.23;37.50;;
67318;Laerm;57664;51.436;5.980;2023-04-06T00:42:13;36.28;35.19;37.40;;
67318;Laerm;57664;51.436;5.980;2023-04-06T00:42:25;36.25;35.12;37.12;;
67318;Laerm;57664;51.436;5.980;2023-04-06T00:42:38;36.22;35.23;37.20;;
67318;Laerm;57664;51.436;5.980;2023-04-06T00:42:48;36.25;35.16;37.14;;
67318;Laerm;57664;51.436;5.980;2023-04-06T00:42:59;36.21;35.24;36.98;;
67318;Laerm;57664;51.436;5.980;2023-04-06T00:43:10;36.22;35.11;37.39;;
67318;Laerm;57664;51.436;5.980;2023-04-06T00:43:21;36.28;35.26;37.28;;
67318;Laerm;57664;51.436;5.980;2023-04-06T00:43:31;36.27;35.34;37.65;;
67318;Laerm;57664;51.436;5.980;2023-04-06T00:43:41;36.25;35.45;37.04;;
67318;Laerm;57664;51.436;5.980;2023-04-06T00:43:53;36.25;35.24;37.49;;
67318;Laerm;57664;51.436;5.980;2023-04-06T00:44:03;36.26;35.19;37.00;;
67318;Laerm;57664;51.436;5.980;2023-04-06T00:44:13;36.26;35.10;37.17;;
67318;Laerm;57664;51.436;5.980;2023-04-06T00:44:23;36.26;35.45;37.45;;
67318;Laerm;57664;51.436;5.980;2023-04-06T00:44:34;36.25;35.36;37.12;;
67318;Laerm;57664;51.436;5.980;2023-04-06T00:44:44;36.23;35.31;36.88;;
67318;Laerm;57664;51.436;5.980;2023-04-06T00:44:56;36.24;35.31;37.28;;
67318;Laerm;57664;51.436;5.980;2023-04-06T00:45:07;36.23;35.31;37.02;;
67318;Laerm;57664;51.436;5.980;2023-04-06T00:45:17;36.20;35.21;37.00;;
67318;Laerm;57664;51.436;5.980;2023-04-06T00:45:28;36.20;35.43;37.17;;
67318;Laerm;57664;51.436;5.980;2023-04-06T00:45:38;36.22;35.30;38.33;;
67318;Laerm;57664;51.436;5.980;2023-04-06T00:45:49;36.21;35.07;37.05;;
67318;Laerm;57664;51.436;5.980;2023-04-06T00:45:59;36.24;35.28;37.11;;
67318;Laerm;57664;51.436;5.980;2023-04-06T00:46:10;36.22;35.24;37.46;;
67318;Laerm;57664;51.436;5.980;2023-04-06T00:46:23;36.21;35.09;37.08;;
67318;Laerm;57664;51.436;5.980;2023-04-06T00:46:33;36.23;35.33;37.11;;
67318;Laerm;57664;51.436;5.980;2023-04-06T00:46:44;36.23;35.25;37.12;;
67318;Laerm;57664;51.436;5.980;2023-04-06T00:46:54;36.20;35.35;37.03;;
67318;Laerm;57664;51.436;5.980;2023-04-06T00:47:05;36.21;35.20;37.15;;
67318;Laerm;57664;51.436;5.980;2023-04-06T00:47:15;36.22;35.44;37.25;;
67318;Laerm;57664;51.436;5.980;2023-04-06T00:47:25;36.22;35.24;37.05;;
67318;Laerm;57664;51.436;5.980;2023-04-06T00:47:36;36.26;35.30;37.08;;
67318;Laerm;57664;51.436;5.980;2023-04-06T00:47:46;36.25;35.31;37.08;;
67318;Laerm;57664;51.436;5.980;2023-04-06T00:47:56;36.24;35.19;36.98;;
67318;Laerm;57664;51.436;5.980;2023-04-06T00:48:07;36.26;35.25;37.11;;
67318;Laerm;57664;51.436;5.980;2023-04-06T00:48:18;36.27;35.43;37.10;;
67318;Laerm;57664;51.436;5.980;2023-04-06T00:48:28;36.30;35.43;37.26;;
67318;Laerm;57664;51.436;5.980;2023-04-06T00:48:40;36.27;35.24;37.36;;
67318;Laerm;57664;51.436;5.980;2023-04-06T00:48:51;36.31;35.51;37.05;;
67318;Laerm;57664;51.436;5.980;2023-04-06T00:49:01;36.29;35.65;37.08;;
67318;Laerm;57664;51.436;5.980;2023-04-06T00:49:12;36.30;35.07;37.21;;
67318;Laerm;57664;51.436;5.980;2023-04-06T00:49:22;36.47;35.34;46.28;;
67318;Laerm;57664;51.436;5.980;2023-04-06T00:49:32;36.34;35.48;36.99;;
67318;Laerm;57664;51.436;5.980;2023-04-06T00:49:43;36.34;35.47;37.17;;
67318;Laerm;57664;51.436;5.980;2023-04-06T00:49:53;36.36;35.34;37.23;;
67318;Laerm;57664;51.436;5.980;2023-04-06T00:50:09;36.33;35.43;37.15;;
67318;Laerm;57664;51.436;5.980;2023-04-06T00:50:20;36.37;35.37;37.44;;
67318;Laerm;57664;51.436;5.980;2023-04-06T00:50:48;36.36;35.46;37.27;;
67318;Laerm;57664;51.436;5.980;2023-04-06T00:50:59;36.36;35.33;37.67;;
67318;Laerm;57664;51.436;5.980;2023-04-06T00:51:09;36.34;35.49;37.34;;
67318;Laerm;57664;51.436;5.980;2023-04-06T00:51:19;36.33;35.35;37.47;;
67318;Laerm;57664;51.436;5.980;2023-04-06T00:51:30;36.33;35.49;37.35;;
67318;Laerm;57664;51.436;5.980;2023-04-06T00:51:40;36.32;35.53;37.16;;
67318;Laerm;57664;51.436;5.980;2023-04-06T00:51:51;36.33;35.33;37.30;;
67318;Laerm;57664;51.436;5.980;2023-04-06T00:52:01;36.32;35.58;37.23;;
67318;Laerm;57664;51.436;5.980;2023-04-06T00:52:11;36.34;35.30;37.26;;
67318;Laerm;57664;51.436;5.980;2023-04-06T00:52:21;36.33;35.43;37.14;;
67318;Laerm;57664;51.436;5.980;2023-04-06T00:52:33;36.35;35.57;37.99;;
67318;Laerm;57664;51.436;5.980;2023-04-06T00:52:43;36.34;35.52;37.54;;
67318;Laerm;57664;51.436;5.980;2023-04-06T00:52:54;36.40;35.33;37.43;;
67318;Laerm;57664;51.436;5.980;2023-04-06T00:53:05;36.36;35.42;37.20;;
67318;Laerm;57664;51.436;5.980;2023-04-06T00:53:15;36.36;35.50;37.14;;
67318;Laerm;57664;51.436;5.980;2023-04-06T00:53:26;36.30;35.37;37.22;;
67318;Laerm;57664;51.436;5.980;2023-04-06T00:53:36;36.32;35.52;37.16;;
67318;Laerm;57664;51.436;5.980;2023-04-06T00:53:46;36.31;35.46;37.10;;
67318;Laerm;57664;51.436;5.980;2023-04-06T00:53:56;36.35;35.38;37.33;;
67318;Laerm;57664;51.436;5.980;2023-04-06T00:54:07;36.31;35.26;37.03;;
67318;Laerm;57664;51.436;5.980;2023-04-06T00:54:20;36.32;35.43;37.12;;
67318;Laerm;57664;51.436;5.980;2023-04-06T00:54:30;36.29;35.29;37.19;;
67318;Laerm;57664;51.436;5.980;2023-04-06T00:54:41;36.27;35.40;36.95;;
67318;Laerm;57664;51.436;5.980;2023-04-06T00:54:51;36.30;35.22;37.32;;
67318;Laerm;57664;51.436;5.980;2023-04-06T00:55:02;36.25;35.45;36.96;;
67318;Laerm;57664;51.436;5.980;2023-04-06T00:55:12;36.28;35.30;37.13;;
67318;Laerm;57664;51.436;5.980;2023-04-06T00:55:23;36.26;35.45;37.41;;
67318;Laerm;57664;51.436;5.980;2023-04-06T00:55:33;36.26;35.26;37.21;;
67318;Laerm;57664;51.436;5.980;2023-04-06T00:55:45;36.23;35.43;37.13;;
67318;Laerm;57664;51.436;5.980;2023-04-06T00:55:56;36.23;35.28;36.90;;
67318;Laerm;57664;51.436;5.980;2023-04-06T00:56:06;36.23;35.28;37.13;;
67318;Laerm;57664;51.436;5.980;2023-04-06T00:56:17;36.19;35.43;37.02;;
67318;Laerm;57664;51.436;5.980;2023-04-06T00:56:27;36.24;35.20;37.23;;
67318;Laerm;57664;51.436;5.980;2023-04-06T00:56:38;36.24;35.22;37.19;;
67318;Laerm;57664;51.436;5.980;2023-04-06T00:56:48;36.27;35.52;37.28;;
67318;Laerm;57664;51.436;5.980;2023-04-06T00:56:58;36.25;35.31;37.17;;
67318;Laerm;57664;51.436;5.980;2023-04-06T00:57:08;36.23;35.38;37.22;;
67318;Laerm;57664;51.436;5.980;2023-04-06T00:57:19;36.26;35.37;37.12;;
67318;Laerm;57664;51.436;5.980;2023-04-06T00:57:30;36.26;35.40;37.06;;
67318;Laerm;57664;51.436;5.980;2023-04-06T00:57:41;36.26;35.37;37.04;;
67318;Laerm;57664;51.436;5.980;2023-04-06T00:57:51;36.26;35.37;37.35;;
67318;Laerm;57664;51.436;5.980;2023-04-06T00:58:02;36.27;35.20;37.00;;
67318;Laerm;57664;51.436;5.980;2023-04-06T00:58:12;36.29;35.34;37.14;;
67318;Laerm;57664;51.436;5.980;2023-04-06T00:58:23;36.24;35.29;37.15;;
67318;Laerm;57664;51.436;5.980;2023-04-06T00:58:34;36.26;35.28;37.15;;
67318;Laerm;57664;51.436;5.980;2023-04-06T00:58:47;36.26;35.41;37.13;;
67318;Laerm;57664;51.436;5.980;2023-04-06T00:58:58;36.26;35.41;37.01;;
67318;Laerm;57664;51.436;5.980;2023-04-06T00:59:10;36.29;35.45;37.03;;
67318;Laerm;57664;51.436;5.980;2023-04-06T00:59:20;36.27;35.47;37.18;;
67318;Laerm;57664;51.436;5.980;2023-04-06T00:59:31;36.25;35.27;37.76;;
67318;Laerm;57664;51.436;5.980;2023-04-06T00:59:44;36.23;35.32;37.35;;